sensor_id;sensor_type;location;lat;lon;timestamp;pressure;altitude;pressure_sealevel;temperature;humidity
43125;BME280;49182;50.788;7.318;2023-03-26T00:00:36;100079.50;;;9.66;63.04
43125;BME280;49182;50.788;7.318;2023-03-26T00:03:03;100100.16;;;9.80;63.57
43125;BME280;49182;50.788;7.318;2023-03-26T00:05:31;100102.81;;;9.80;62.87
43125;BME280;49182;50.788;7.318;2023-03-26T00:07:58;100104.47;;;9.81;62.96
43125;BME280;49182;50.788;7.318;2023-03-26T00:10:25;100105.44;;;9.80;63.50
43125;BME280;49182;50.788;7.318;2023-03-26T00:12:51;100111.94;;;9.76;63.31
43125;BME280;49182;50.788;7.318;2023-03-26T00:15:18;100113.47;;;9.79;63.49
43125;BME280;49182;50.788;7.318;2023-03-26T00:17:45;100117.91;;;9.78;62.99
43125;BME280;49182;50.788;7.318;2023-03-26T00:20:12;100115.03;;;9.81;63.07
43125;BME280;49182;50.788;7.318;2023-03-26T00:22:40;100096.44;;;9.73;63.21
43125;BME280;49182;50.788;7.318;2023-03-26T00:25:07;100104.59;;;9.80;63.33
43125;BME280;49182;50.788;7.318;2023-03-26T00:27:34;100095.72;;;9.71;63.10
43125;BME280;49182;50.788;7.318;2023-03-26T00:30:00;100113.47;;;9.79;63.31
43125;BME280;49182;50.788;7.318;2023-03-26T00:32:27;100109.03;;;9.79;63.68
43125;BME280;49182;50.788;7.318;2023-03-26T00:34:54;100109.03;;;9.79;64.10
43125;BME280;49182;50.788;7.318;2023-03-26T00:37:21;100104.47;;;9.81;64.22
43125;BME280;49182;50.788;7.318;2023-03-26T00:39:49;100103.06;;;9.77;64.46
43125;BME280;49182;50.788;7.318;2023-03-26T00:42:15;100093.66;;;9.74;64.67
43125;BME280;49182;50.788;7.318;2023-03-26T00:44:42;100080.34;;;9.66;64.68
43125;BME280;49182;50.788;7.318;2023-03-26T00:47:09;100076.34;;;9.62;64.83
43125;BME280;49182;50.788;7.318;2023-03-26T00:49:35;100093.38;;;9.78;65.16
43125;BME280;49182;50.788;7.318;2023-03-26T00:52:02;100093.38;;;9.78;65.78
43125;BME280;49182;50.788;7.318;2023-03-26T00:54:29;100058.28;;;9.58;66.38
43125;BME280;49182;50.788;7.318;2023-03-26T00:56:57;100081.72;;;9.80;65.98
43125;BME280;49182;50.788;7.318;2023-03-26T00:59:24;100080.63;;;9.73;66.18
43125;BME280;49182;50.788;7.318;2023-03-26T01:01:51;100081.44;;;9.73;66.50
43125;BME280;49182;50.788;7.318;2023-03-26T01:04:22;100077.16;;;9.72;66.72
43125;BME280;49182;50.788;7.318;2023-03-26T01:06:49;100072.69;;;9.73;67.80
43125;BME280;49182;50.788;7.318;2023-03-26T01:09:18;100070.34;;;9.70;68.37
43125;BME280;49182;50.788;7.318;2023-03-26T01:11:46;100061.19;;;9.64;68.97
43125;BME280;49182;50.788;7.318;2023-03-26T01:14:18;100068.66;;;9.69;69.10
43125;BME280;49182;50.788;7.318;2023-03-26T01:16:49;100061.91;;;9.66;69.35
43125;BME280;49182;50.788;7.318;2023-03-26T01:19:20;100053.03;;;9.67;70.31
43125;BME280;49182;50.788;7.318;2023-03-26T01:21:49;100051.63;;;9.63;70.31
43125;BME280;49182;50.788;7.318;2023-03-26T01:24:17;100046.78;;;9.59;70.68
43125;BME280;49182;50.788;7.318;2023-03-26T01:26:55;100040.81;;;9.57;70.88
43125;BME280;49182;50.788;7.318;2023-03-26T01:29:30;100012.16;;;9.34;71.01
43125;BME280;49182;50.788;7.318;2023-03-26T01:32:04;100030.69;;;9.52;71.77
43125;BME280;49182;50.788;7.318;2023-03-26T01:34:43;100008.25;;;9.39;71.95
43125;BME280;49182;50.788;7.318;2023-03-26T01:37:19;100029.78;;;9.44;71.76
43125;BME280;49182;50.788;7.318;2023-03-26T01:39:53;100023.09;;;9.40;72.25
43125;BME280;49182;50.788;7.318;2023-03-26T01:42:21;100029.06;;;9.32;72.69
43125;BME280;49182;50.788;7.318;2023-03-26T01:44:54;100033.53;;;9.31;73.16
43125;BME280;49182;50.788;7.318;2023-03-26T01:47:23;100026.03;;;9.27;73.51
43125;BME280;49182;50.788;7.318;2023-03-26T01:49:50;100026.03;;;9.27;74.10
43125;BME280;49182;50.788;7.318;2023-03-26T01:52:20;100022.72;;;9.25;74.56
43125;BME280;49182;50.788;7.318;2023-03-26T01:54:47;99998.59;;;9.10;74.78
43125;BME280;49182;50.788;7.318;2023-03-26T01:57:19;99989.34;;;9.06;75.18
43125;BME280;49182;50.788;7.318;2023-03-26T02:00:03;100005.50;;;9.21;75.14
43125;BME280;49182;50.788;7.318;2023-03-26T02:02:47;99993.34;;;9.10;77.10
43125;BME280;49182;50.788;7.318;2023-03-26T02:05:20;100004.97;;;9.08;77.63
43125;BME280;49182;50.788;7.318;2023-03-26T02:07:51;99968.13;;;8.79;77.89
43125;BME280;49182;50.788;7.318;2023-03-26T02:10:26;99995.28;;;8.89;78.14
43125;BME280;49182;50.788;7.318;2023-03-26T02:12:55;99981.28;;;8.79;77.92
43125;BME280;49182;50.788;7.318;2023-03-26T02:15:23;99993.47;;;8.80;78.17
43125;BME280;49182;50.788;7.318;2023-03-26T02:17:50;99933.50;;;8.45;77.86
43125;BME280;49182;50.788;7.318;2023-03-26T02:20:17;99985.31;;;8.73;78.52
43125;BME280;49182;50.788;7.318;2023-03-26T02:22:45;99973.78;;;8.65;78.72
43125;BME280;49182;50.788;7.318;2023-03-26T02:25:16;99969.22;;;8.67;79.03
43125;BME280;49182;50.788;7.318;2023-03-26T02:27:45;99970.59;;;8.71;79.44
43125;BME280;49182;50.788;7.318;2023-03-26T02:30:15;99970.47;;;8.72;79.91
43125;BME280;49182;50.788;7.318;2023-03-26T02:32:46;99958.28;;;8.71;80.39
43125;BME280;49182;50.788;7.318;2023-03-26T02:35:13;99959.81;;;8.74;80.94
43125;BME280;49182;50.788;7.318;2023-03-26T02:37:40;99955.94;;;8.68;80.96
43125;BME280;49182;50.788;7.318;2023-03-26T02:40:12;99953.44;;;8.67;81.78
43125;BME280;49182;50.788;7.318;2023-03-26T02:42:41;99902.75;;;8.36;81.93
43125;BME280;49182;50.788;7.318;2023-03-26T02:45:08;99942.50;;;8.62;81.84
43125;BME280;49182;50.788;7.318;2023-03-26T02:47:55;99933.06;;;8.59;81.79
43125;BME280;49182;50.788;7.318;2023-03-26T02:50:44;99936.00;;;8.56;81.95
43125;BME280;49182;50.788;7.318;2023-03-26T02:53:38;99931.69;;;8.55;81.71
43125;BME280;49182;50.788;7.318;2023-03-26T02:56:28;99938.06;;;8.52;82.10
43125;BME280;49182;50.788;7.318;2023-03-26T02:59:07;99922.53;;;8.40;82.12
43125;BME280;49182;50.788;7.318;2023-03-26T03:01:34;99911.63;;;8.44;82.40
43125;BME280;49182;50.788;7.318;2023-03-26T03:04:03;99937.22;;;8.52;82.77
43125;BME280;49182;50.788;7.318;2023-03-26T03:06:34;99933.91;;;8.50;82.93
43125;BME280;49182;50.788;7.318;2023-03-26T03:09:00;99930.47;;;8.49;82.84
43125;BME280;49182;50.788;7.318;2023-03-26T03:11:37;99918.13;;;8.50;83.20
43125;BME280;49182;50.788;7.318;2023-03-26T03:14:05;99923.81;;;8.45;83.33
43125;BME280;49182;50.788;7.318;2023-03-26T03:16:32;99911.63;;;8.44;83.66
43125;BME280;49182;50.788;7.318;2023-03-26T03:19:06;99908.56;;;8.39;83.23
43125;BME280;49182;50.788;7.318;2023-03-26T03:21:37;99903.16;;;8.41;83.11
43125;BME280;49182;50.788;7.318;2023-03-26T03:24:06;99897.38;;;8.37;82.87
43125;BME280;49182;50.788;7.318;2023-03-26T03:26:36;99885.31;;;8.35;83.07
43125;BME280;49182;50.788;7.318;2023-03-26T03:29:14;99894.59;;;8.48;83.66
43125;BME280;49182;50.788;7.318;2023-03-26T03:31:42;99883.66;;;8.43;83.98
43125;BME280;49182;50.788;7.318;2023-03-26T03:34:21;99849.97;;;8.28;84.22
43125;BME280;49182;50.788;7.318;2023-03-26T03:36:49;99877.16;;;8.38;84.77
43125;BME280;49182;50.788;7.318;2023-03-26T03:39:30;99874.78;;;8.35;85.35
43125;BME280;49182;50.788;7.318;2023-03-26T03:41:57;99878.66;;;8.31;85.18
43125;BME280;49182;50.788;7.318;2023-03-26T03:44:24;99872.69;;;8.29;85.53
43125;BME280;49182;50.788;7.318;2023-03-26T03:46:51;99872.44;;;8.32;86.13
43125;BME280;49182;50.788;7.318;2023-03-26T03:49:18;99875.91;;;8.32;86.23
43125;BME280;49182;50.788;7.318;2023-03-26T03:51:46;99859.53;;;8.29;87.00
43125;BME280;49182;50.788;7.318;2023-03-26T03:54:28;99855.94;;;8.20;87.09
43125;BME280;49182;50.788;7.318;2023-03-26T03:57:13;99854.94;;;8.21;87.26
43125;BME280;49182;50.788;7.318;2023-03-26T04:00:00;99828.94;;;8.08;87.42
43125;BME280;49182;50.788;7.318;2023-03-26T04:02:40;99846.66;;;8.16;87.48
43125;BME280;49182;50.788;7.318;2023-03-26T04:05:08;99829.50;;;8.12;87.78
43125;BME280;49182;50.788;7.318;2023-03-26T04:07:38;99833.09;;;8.11;87.96
43125;BME280;49182;50.788;7.318;2023-03-26T04:10:06;99828.53;;;8.13;88.63
43125;BME280;49182;50.788;7.318;2023-03-26T04:12:52;99814.97;;;8.08;88.66
43125;BME280;49182;50.788;7.318;2023-03-26T04:15:32;99824.38;;;8.10;88.87
43125;BME280;49182;50.788;7.318;2023-03-26T04:17:59;99819.94;;;8.11;88.81
43125;BME280;49182;50.788;7.318;2023-03-26T04:20:25;99811.78;;;8.14;89.49
43125;BME280;49182;50.788;7.318;2023-03-26T04:22:54;99780.91;;;7.97;89.92
43125;BME280;49182;50.788;7.318;2023-03-26T04:25:24;99805.00;;;8.02;90.53
43125;BME280;49182;50.788;7.318;2023-03-26T04:27:56;99789.25;;;8.02;91.23
43125;BME280;49182;50.788;7.318;2023-03-26T04:30:38;99778.72;;;7.92;91.35
43125;BME280;49182;50.788;7.318;2023-03-26T04:33:22;99789.63;;;7.97;90.86
43125;BME280;49182;50.788;7.318;2023-03-26T04:35:50;99786.03;;;7.98;91.45
43125;BME280;49182;50.788;7.318;2023-03-26T04:38:19;99785.50;;;7.95;91.65
43125;BME280;49182;50.788;7.318;2023-03-26T04:40:50;99786.06;;;7.89;91.64
43125;BME280;49182;50.788;7.318;2023-03-26T04:43:42;99779.97;;;7.88;91.52
43125;BME280;49182;50.788;7.318;2023-03-26T04:46:17;99762.53;;;7.78;91.87
43125;BME280;49182;50.788;7.318;2023-03-26T04:48:53;99747.16;;;7.73;92.24
43125;BME280;49182;50.788;7.318;2023-03-26T04:51:23;99774.84;;;7.87;91.82
43125;BME280;49182;50.788;7.318;2023-03-26T04:53:53;99752.69;;;7.80;92.44
43125;BME280;49182;50.788;7.318;2023-03-26T04:56:49;99757.16;;;7.89;92.82
43125;BME280;49182;50.788;7.318;2023-03-26T04:59:32;99754.66;;;7.87;92.60
43125;BME280;49182;50.788;7.318;2023-03-26T05:02:03;99731.25;;;7.84;92.44
43125;BME280;49182;50.788;7.318;2023-03-26T05:04:37;99749.81;;;7.92;92.94
43125;BME280;49182;50.788;7.318;2023-03-26T05:07:05;99749.53;;;7.95;93.41
43125;BME280;49182;50.788;7.318;2023-03-26T05:09:40;99740.66;;;7.96;93.32
43125;BME280;49182;50.788;7.318;2023-03-26T05:12:11;99732.53;;;7.90;94.03
43125;BME280;49182;50.788;7.318;2023-03-26T05:14:50;99721.44;;;7.86;94.16
43125;BME280;49182;50.788;7.318;2023-03-26T05:17:27;99722.28;;;7.87;93.72
43125;BME280;49182;50.788;7.318;2023-03-26T05:19:53;99715.22;;;7.87;94.10
43125;BME280;49182;50.788;7.318;2023-03-26T05:22:21;99716.06;;;7.88;94.08
43125;BME280;49182;50.788;7.318;2023-03-26T05:25:15;99704.56;;;7.98;93.86
43125;BME280;49182;50.788;7.318;2023-03-26T05:27:43;99705.13;;;7.83;94.09
43125;BME280;49182;50.788;7.318;2023-03-26T05:30:12;99712.47;;;7.89;93.90
43125;BME280;49182;50.788;7.318;2023-03-26T05:32:43;99697.09;;;7.94;94.47
43125;BME280;49182;50.788;7.318;2023-03-26T05:35:11;99673.03;;;7.79;94.10
43125;BME280;49182;50.788;7.318;2023-03-26T05:37:38;99685.22;;;7.90;94.61
43125;BME280;49182;50.788;7.318;2023-03-26T05:40:06;99681.47;;;7.92;94.41
43125;BME280;49182;50.788;7.318;2023-03-26T05:42:46;99680.50;;;7.93;94.42
43125;BME280;49182;50.788;7.318;2023-03-26T05:45:31;99678.72;;;7.94;94.70
43125;BME280;49182;50.788;7.318;2023-03-26T05:48:03;99679.81;;;7.91;94.88
43125;BME280;49182;50.788;7.318;2023-03-26T05:50:30;99675.50;;;7.90;94.91
43125;BME280;49182;50.788;7.318;2023-03-26T05:52:58;99667.09;;;7.87;94.70
43125;BME280;49182;50.788;7.318;2023-03-26T05:55:51;99681.06;;;7.87;95.02
43125;BME280;49182;50.788;7.318;2023-03-26T05:58:49;99680.09;;;7.88;94.96
43125;BME280;49182;50.788;7.318;2023-03-26T06:01:36;99665.44;;;7.86;94.79
43125;BME280;49182;50.788;7.318;2023-03-26T06:04:14;99673.44;;;7.94;95.10
43125;BME280;49182;50.788;7.318;2023-03-26T06:06:50;99676.06;;;7.94;95.44
43125;BME280;49182;50.788;7.318;2023-03-26T06:09:17;99652.28;;;7.86;94.93
43125;BME280;49182;50.788;7.318;2023-03-26T06:11:44;99660.97;;;8.05;95.37
43125;BME280;49182;50.788;7.318;2023-03-26T06:14:12;99648.09;;;8.12;95.21
43125;BME280;49182;50.788;7.318;2023-03-26T06:16:54;99640.63;;;8.07;95.46
43125;BME280;49182;50.788;7.318;2023-03-26T06:19:22;99648.66;;;8.06;95.56
43125;BME280;49182;50.788;7.318;2023-03-26T06:21:59;99640.91;;;8.04;95.88
43125;BME280;49182;50.788;7.318;2023-03-26T06:24:33;99631.22;;;8.05;96.36
43125;BME280;49182;50.788;7.318;2023-03-26T06:27:19;99623.22;;;8.06;96.13
43125;BME280;49182;50.788;7.318;2023-03-26T06:30:16;99632.59;;;8.09;96.31
43125;BME280;49182;50.788;7.318;2023-03-26T06:32:52;99612.81;;;8.15;96.27
43125;BME280;49182;50.788;7.318;2023-03-26T06:35:23;99611.81;;;8.16;96.34
43125;BME280;49182;50.788;7.318;2023-03-26T06:37:50;99592.75;;;8.04;96.45
43125;BME280;49182;50.788;7.318;2023-03-26T06:40:17;99606.28;;;8.19;96.03
43125;BME280;49182;50.788;7.318;2023-03-26T06:43:02;99597.19;;;8.13;96.19
43125;BME280;49182;50.788;7.318;2023-03-26T06:46:00;99610.72;;;8.18;96.11
43125;BME280;49182;50.788;7.318;2023-03-26T06:48:47;99596.75;;;8.18;96.36
43125;BME280;49182;50.788;7.318;2023-03-26T06:51:17;99603.91;;;8.25;96.77
43125;BME280;49182;50.788;7.318;2023-03-26T06:54:03;99559.16;;;8.07;96.36
43125;BME280;49182;50.788;7.318;2023-03-26T06:56:49;99578.84;;;8.21;96.55
43125;BME280;49182;50.788;7.318;2023-03-26T06:59:36;99595.03;;;8.36;96.38
43125;BME280;49182;50.788;7.318;2023-03-26T07:02:23;99596.38;;;8.40;96.80
43125;BME280;49182;50.788;7.318;2023-03-26T07:05:08;99590.97;;;8.51;94.74
43125;BME280;49182;50.788;7.318;2023-03-26T07:08:07;99582.50;;;8.57;93.58
43125;BME280;49182;50.788;7.318;2023-03-26T07:10:52;99581.28;;;8.51;93.24
43125;BME280;49182;50.788;7.318;2023-03-26T07:13:42;99573.53;;;8.50;93.46
43125;BME280;49182;50.788;7.318;2023-03-26T07:16:28;99555.31;;;8.39;94.50
43125;BME280;49182;50.788;7.318;2023-03-26T07:19:09;99559.97;;;8.45;94.66
43125;BME280;49182;50.788;7.318;2023-03-26T07:21:38;99568.78;;;8.53;94.07
43125;BME280;49182;50.788;7.318;2023-03-26T07:24:20;99554.72;;;8.45;95.77
43125;BME280;49182;50.788;7.318;2023-03-26T07:27:02;99552.81;;;8.37;96.69
43125;BME280;49182;50.788;7.318;2023-03-26T07:29:40;99553.34;;;8.41;96.87
43125;BME280;49182;50.788;7.318;2023-03-26T07:32:33;99560.16;;;8.34;97.37
43125;BME280;49182;50.788;7.318;2023-03-26T07:35:47;99547.00;;;8.34;97.13
43125;BME280;49182;50.788;7.318;2023-03-26T07:38:48;99545.75;;;8.38;97.76
43125;BME280;49182;50.788;7.318;2023-03-26T07:41:49;99540.06;;;8.42;97.43
43125;BME280;49182;50.788;7.318;2023-03-26T07:44:42;99540.75;;;8.44;97.02
43125;BME280;49182;50.788;7.318;2023-03-26T07:47:29;99539.38;;;8.58;96.85
43125;BME280;49182;50.788;7.318;2023-03-26T07:50:24;99533.75;;;8.53;96.72
43125;BME280;49182;50.788;7.318;2023-03-26T07:53:15;99528.34;;;8.55;97.12
43125;BME280;49182;50.788;7.318;2023-03-26T07:56:02;99529.69;;;8.59;97.06
43125;BME280;49182;50.788;7.318;2023-03-26T07:58:54;99515.06;;;8.56;96.92
43125;BME280;49182;50.788;7.318;2023-03-26T08:01:51;99522.50;;;8.61;97.17
43125;BME280;49182;50.788;7.318;2023-03-26T08:04:42;99500.94;;;8.57;96.87
43125;BME280;49182;50.788;7.318;2023-03-26T08:07:43;99511.38;;;8.67;96.79
43125;BME280;49182;50.788;7.318;2023-03-26T08:10:25;99518.28;;;8.68;96.94
43125;BME280;49182;50.788;7.318;2023-03-26T08:13:04;99506.19;;;8.75;96.75
43125;BME280;49182;50.788;7.318;2023-03-26T08:15:38;99458.50;;;8.42;96.84
43125;BME280;49182;50.788;7.318;2023-03-26T08:18:17;99485.53;;;8.62;97.23
43125;BME280;49182;50.788;7.318;2023-03-26T08:20:49;99503.13;;;8.79;96.93
43125;BME280;49182;50.788;7.318;2023-03-26T08:23:23;99489.50;;;8.84;94.34
43125;BME280;49182;50.788;7.318;2023-03-26T08:26:25;99482.28;;;8.68;95.59
43125;BME280;49182;50.788;7.318;2023-03-26T08:29:00;99467.69;;;8.56;95.39
43125;BME280;49182;50.788;7.318;2023-03-26T08:31:33;99465.06;;;8.56;95.70
43125;BME280;49182;50.788;7.318;2023-03-26T08:34:01;99442.28;;;8.47;95.90
43125;BME280;49182;50.788;7.318;2023-03-26T08:36:27;99494.00;;;8.74;95.91
43125;BME280;49182;50.788;7.318;2023-03-26T08:38:54;99493.56;;;8.78;95.80
43125;BME280;49182;50.788;7.318;2023-03-26T08:41:52;99488.75;;;8.74;95.66
43125;BME280;49182;50.788;7.318;2023-03-26T08:51:00;99493.03;;;8.75;95.81
43125;BME280;49182;50.788;7.318;2023-03-26T08:54:01;99490.56;;;8.73;95.59
43125;BME280;49182;50.788;7.318;2023-03-26T08:56:45;99483.50;;;8.74;95.88
43125;BME280;49182;50.788;7.318;2023-03-26T08:59:36;99489.81;;;8.81;95.43
43125;BME280;49182;50.788;7.318;2023-03-26T09:02:13;99483.47;;;8.91;93.50
43125;BME280;49182;50.788;7.318;2023-03-26T09:07:57;99480.47;;;8.86;90.73
43125;BME280;49182;50.788;7.318;2023-03-26T09:10:43;99471.69;;;8.78;90.19
43125;BME280;49182;50.788;7.318;2023-03-26T09:16:35;99457.22;;;8.64;87.23
43125;BME280;49182;50.788;7.318;2023-03-26T09:19:29;99455.97;;;8.50;89.05
43125;BME280;49182;50.788;7.318;2023-03-26T09:25:22;99398.63;;;8.09;90.96
43125;BME280;49182;50.788;7.318;2023-03-26T09:28:17;99444.84;;;8.39;91.29
43125;BME280;49182;50.788;7.318;2023-03-26T09:31:03;99439.59;;;8.39;90.12
43125;BME280;49182;50.788;7.318;2023-03-26T09:33:52;99429.50;;;8.34;90.61
43125;BME280;49182;50.788;7.318;2023-03-26T09:36:30;99417.88;;;8.27;90.66
43125;BME280;49182;50.788;7.318;2023-03-26T09:39:07;99434.75;;;8.34;91.19
43125;BME280;49182;50.788;7.318;2023-03-26T09:41:40;99429.50;;;8.34;91.54
43125;BME280;49182;50.788;7.318;2023-03-26T09:44:36;99409.09;;;8.19;91.67
43125;BME280;49182;50.788;7.318;2023-03-26T09:47:48;99417.41;;;8.41;91.88
43125;BME280;49182;50.788;7.318;2023-03-26T09:50:28;99399.47;;;8.27;90.45
43125;BME280;49182;50.788;7.318;2023-03-26T09:53:04;99415.38;;;8.35;90.97
43125;BME280;49182;50.788;7.318;2023-03-26T09:55:47;99409.28;;;8.35;92.03
43125;BME280;49182;50.788;7.318;2023-03-26T10:01:34;99397.66;;;8.37;91.35
43125;BME280;49182;50.788;7.318;2023-03-26T10:04:35;99400.56;;;8.52;91.12
43125;BME280;49182;50.788;7.318;2023-03-26T10:07:20;99384.94;;;8.50;90.86
43125;BME280;49182;50.788;7.318;2023-03-26T10:09:56;99365.63;;;8.42;90.44
43125;BME280;49182;50.788;7.318;2023-03-26T10:12:31;99391.06;;;8.77;91.31
43125;BME280;49182;50.788;7.318;2023-03-26T10:15:11;99386.22;;;8.90;89.93
43125;BME280;49182;50.788;7.318;2023-03-26T10:17:48;99382.97;;;8.96;89.25
43125;BME280;49182;50.788;7.318;2023-03-26T10:20:32;99376.34;;;9.10;88.54
43125;BME280;49182;50.788;7.318;2023-03-26T10:23:17;99373.13;;;9.24;89.54
43125;BME280;49182;50.788;7.318;2023-03-26T10:26:01;99366.00;;;9.42;88.18
43125;BME280;49182;50.788;7.318;2023-03-26T10:28:44;99375.47;;;9.61;86.98
43125;BME280;49182;50.788;7.318;2023-03-26T10:31:29;99362.97;;;9.71;87.10
43125;BME280;49182;50.788;7.318;2023-03-26T10:34:12;99358.22;;;9.83;86.26
43125;BME280;49182;50.788;7.318;2023-03-26T10:37:03;99346.03;;;9.73;86.06
43125;BME280;49182;50.788;7.318;2023-03-26T10:39:49;99356.06;;;9.78;84.73
43125;BME280;49182;50.788;7.318;2023-03-26T10:42:42;99350.50;;;9.81;84.29
43125;BME280;49182;50.788;7.318;2023-03-26T10:45:55;99351.28;;;9.82;85.44
43125;BME280;49182;50.788;7.318;2023-03-26T10:48:34;99346.41;;;9.87;84.22
43125;BME280;49182;50.788;7.318;2023-03-26T10:51:26;99341.94;;;9.87;83.94
43125;BME280;49182;50.788;7.318;2023-03-26T10:54:02;99332.19;;;9.88;84.47
43125;BME280;49182;50.788;7.318;2023-03-26T10:56:34;99335.19;;;9.85;86.11
43125;BME280;49182;50.788;7.318;2023-03-26T10:59:06;99322.50;;;9.80;84.66
43125;BME280;49182;50.788;7.318;2023-03-26T11:01:38;99326.78;;;9.89;83.62
43125;BME280;49182;50.788;7.318;2023-03-26T11:04:17;99336.00;;;9.85;85.31
43125;BME280;49182;50.788;7.318;2023-03-26T11:06:54;99330.41;;;9.88;85.44
43125;BME280;49182;50.788;7.318;2023-03-26T11:09:31;99325.50;;;9.93;85.52
43125;BME280;49182;50.788;7.318;2023-03-26T11:12:08;99310.66;;;9.92;84.95
43125;BME280;49182;50.788;7.318;2023-03-26T11:15:01;99288.88;;;9.90;83.71
43125;BME280;49182;50.788;7.318;2023-03-26T11:17:38;99323.69;;;10.10;84.73
43125;BME280;49182;50.788;7.318;2023-03-26T11:20:12;99320.88;;;10.03;85.62
43125;BME280;49182;50.788;7.318;2023-03-26T11:22:52;99311.50;;;10.09;86.88
43125;BME280;49182;50.788;7.318;2023-03-26T11:25:31;99298.19;;;10.27;86.07
43125;BME280;49182;50.788;7.318;2023-03-26T11:28:10;99275.28;;;10.35;84.82
43125;BME280;49182;50.788;7.318;2023-03-26T11:30:45;99292.91;;;10.59;84.58
43125;BME280;49182;50.788;7.318;2023-03-26T11:33:18;99285.75;;;10.76;86.73
43125;BME280;49182;50.788;7.318;2023-03-26T11:35:47;99280.94;;;10.87;83.79
43125;BME280;49182;50.788;7.318;2023-03-26T11:38:18;99274.16;;;10.93;83.66
43125;BME280;49182;50.788;7.318;2023-03-26T11:40:48;99271.63;;;11.16;84.43
43125;BME280;49182;50.788;7.318;2023-03-26T11:43:30;99274.56;;;11.29;83.86
43125;BME280;49182;50.788;7.318;2023-03-26T11:45:58;99271.38;;;11.42;84.11
43125;BME280;49182;50.788;7.318;2023-03-26T11:48:29;99267.50;;;11.52;82.32
43125;BME280;49182;50.788;7.318;2023-03-26T11:51:00;99268.63;;;11.58;80.96
43125;BME280;49182;50.788;7.318;2023-03-26T11:53:31;99258.22;;;11.56;81.79
43125;BME280;49182;50.788;7.318;2023-03-26T11:56:00;99255.75;;;11.55;80.11
43125;BME280;49182;50.788;7.318;2023-03-26T11:58:31;99258.25;;;11.48;80.56
43125;BME280;49182;50.788;7.318;2023-03-26T12:01:03;99263.34;;;11.19;82.29
43125;BME280;49182;50.788;7.318;2023-03-26T12:03:30;99259.03;;;11.26;84.08
43125;BME280;49182;50.788;7.318;2023-03-26T12:05:58;99255.97;;;11.06;80.81
43125;BME280;49182;50.788;7.318;2023-03-26T12:08:30;99271.44;;;10.70;84.16
43125;BME280;49182;50.788;7.318;2023-03-26T12:11:03;99281.00;;;10.63;82.98
43125;BME280;49182;50.788;7.318;2023-03-26T12:13:37;99274.78;;;10.48;84.56
43125;BME280;49182;50.788;7.318;2023-03-26T12:16:10;99289.94;;;10.54;84.76
43125;BME280;49182;50.788;7.318;2023-03-26T12:18:39;99288.13;;;10.46;81.92
43125;BME280;49182;50.788;7.318;2023-03-26T12:21:08;99296.34;;;10.51;78.15
43125;BME280;49182;50.788;7.318;2023-03-26T12:23:50;99287.97;;;10.48;79.12
43125;BME280;49182;50.788;7.318;2023-03-26T12:26:27;99299.50;;;10.31;76.57
43125;BME280;49182;50.788;7.318;2023-03-26T12:29:06;99301.81;;;10.42;76.71
43125;BME280;49182;50.788;7.318;2023-03-26T12:31:45;99290.94;;;10.37;74.84
43125;BME280;49182;50.788;7.318;2023-03-26T12:34:15;99287.59;;;10.02;75.41
43125;BME280;49182;50.788;7.318;2023-03-26T12:36:47;99249.34;;;9.90;75.98
43125;BME280;49182;50.788;7.318;2023-03-26T12:39:25;99294.34;;;10.05;77.15
43125;BME280;49182;50.788;7.318;2023-03-26T12:42:30;99292.00;;;9.78;77.96
43125;BME280;49182;50.788;7.318;2023-03-26T12:45:22;99291.81;;;9.71;76.49
43125;BME280;49182;50.788;7.318;2023-03-26T12:47:51;99292.44;;;9.65;78.07
43125;BME280;49182;50.788;7.318;2023-03-26T12:50:32;99292.16;;;9.76;78.61
43125;BME280;49182;50.788;7.318;2023-03-26T12:53:14;99284.88;;;9.70;78.56
43125;BME280;49182;50.788;7.318;2023-03-26T12:55:52;99289.69;;;9.74;78.21
43125;BME280;49182;50.788;7.318;2023-03-26T12:58:44;99292.16;;;9.76;77.17
43125;BME280;49182;50.788;7.318;2023-03-26T13:01:24;99290.50;;;9.83;77.19
43125;BME280;49182;50.788;7.318;2023-03-26T13:04:14;99271.00;;;9.52;77.17
43125;BME280;49182;50.788;7.318;2023-03-26T13:06:47;99284.88;;;9.62;78.34
43125;BME280;49182;50.788;7.318;2023-03-26T13:09:53;99294.22;;;9.48;78.21
43125;BME280;49182;50.788;7.318;2023-03-26T13:12:32;99290.94;;;9.54;79.00
43125;BME280;49182;50.788;7.318;2023-03-26T13:15:07;99289.13;;;9.63;79.53
43125;BME280;49182;50.788;7.318;2023-03-26T13:17:43;99290.34;;;9.77;79.33
43125;BME280;49182;50.788;7.318;2023-03-26T13:20:19;99291.88;;;9.87;79.52
43125;BME280;49182;50.788;7.318;2023-03-26T13:22:57;99297.97;;;10.04;79.37
43125;BME280;49182;50.788;7.318;2023-03-26T13:25:35;99281.34;;;10.11;79.00
43125;BME280;49182;50.788;7.318;2023-03-26T13:28:17;99292.25;;;10.17;77.83
43125;BME280;49182;50.788;7.318;2023-03-26T13:30:53;99198.59;;;9.72;77.71
43125;BME280;49182;50.788;7.318;2023-03-26T13:33:31;99276.06;;;10.20;77.62
43125;BME280;49182;50.788;7.318;2023-03-26T13:36:04;99287.31;;;10.22;77.13
43125;BME280;49182;50.788;7.318;2023-03-26T13:38:59;99286.63;;;10.20;77.43
43125;BME280;49182;50.788;7.318;2023-03-26T13:41:38;99256.44;;;10.06;79.70
43125;BME280;49182;50.788;7.318;2023-03-26T13:44:16;99292.22;;;10.25;78.05
43125;BME280;49182;50.788;7.318;2023-03-26T13:46:50;99247.91;;;10.20;78.48
43125;BME280;49182;50.788;7.318;2023-03-26T13:49:26;99269.34;;;10.41;79.20
43125;BME280;49182;50.788;7.318;2023-03-26T13:51:56;99288.28;;;10.61;78.52
43125;BME280;49182;50.788;7.318;2023-03-26T13:54:29;99285.28;;;10.64;77.84
43125;BME280;49182;50.788;7.318;2023-03-26T13:57:05;99290.25;;;10.51;78.20
43125;BME280;49182;50.788;7.318;2023-03-26T13:59:37;99294.22;;;10.47;79.24
43125;BME280;49182;50.788;7.318;2023-03-26T14:02:10;99282.84;;;10.46;79.72
43125;BME280;49182;50.788;7.318;2023-03-26T14:04:43;99298.66;;;10.63;80.38
43125;BME280;49182;50.788;7.318;2023-03-26T14:07:15;99277.88;;;10.51;78.80
43125;BME280;49182;50.788;7.318;2023-03-26T14:09:46;99290.25;;;10.67;79.45
43125;BME280;49182;50.788;7.318;2023-03-26T14:12:39;99295.03;;;10.64;78.03
43125;BME280;49182;50.788;7.318;2023-03-26T14:15:11;99299.50;;;10.47;77.95
43125;BME280;49182;50.788;7.318;2023-03-26T14:17:43;99299.50;;;10.47;79.27